Abadiania, Brazil
Current Conditions -  °F | °C
As of 1:00 PM on Thursday 23 Oct 2014 (Local Time) from SBAN Reporting Station
Broken Clouds Broken Clouds  
Wind Chill: 75°   Ceiling: 10000
Heat Index: 75°   Visibility: 6mi
Dew Point: 63°   Wind: 3mph
Humidity: 65%   Direction: 60°ENE
Pressure: 30.18"   Gusts: NA
Location:  16.2°S, 48.71°W
Report Text: SBAN 231500Z 06003KT 9999 SCT030 FEW035TCU BKN100 24/17 Q1022
Loading
Personal Weather Stations






























Interactive Weather Map
Tropical Storm Tracking
New forecast layout! Learn more

10-Day Weather Forecast

Advertisements
Track Severe Weather on mobile